METAR AND TAF INFORMATION


GMMN 211530Z 31014KT 280V340 9999 SCT016TCU BKN023 20/13 Q1009 NOSIG
GMMN 211500Z 27008KT 210V320 9999 SCT016TCU BKN023 20/12 Q1009 NOSIG
TAF GMMN 211100Z 2112/2218 26008KT 9999 BKN016 SCT100 TEMPO 2114/2120 32017KT PROB30 TEMPO 2113/2116 5000 RA BECMG 2116/2118 SCT016 BECMG 2120/2123 20010KT 7000 SCT013

 AIRPORT MAP

 RUNWAY INFORMATION
Runway 17L Runway length 12205 ft Runway width 148 ft
Runway elevation 633 ft Runway displaced threshold 0 ft Runway heading 164
Runway 35R Runway length 12205 ft Runway width 148 ft
Runway elevation 656 ft Runway displaced threshold 0 ft Runway heading 344
Runway 17R Runway length 12205 ft Runway width 148 ft
Runway elevation 636 ft Runway displaced threshold 0 ft Runway heading 164
Runway 35L Runway length 12205 ft Runway width 148 ft
Runway elevation 656 ft Runway displaced threshold 0 ft Runway heading 344

 AIRPORT FREQUENCIES
Type APP Name APP Frequency 121.3 MHZ
Type ATIS Name ATIS Frequency 126.4 MHZ
Type TWR Name TWR Frequency 118.5 MHZ

 AIRPORT NEAR NAVIGATION AIDS
Type VOR-DME Name Casablanca Frequency 114000 KHZ